LEPO2: Verdigris, River, Lenapah, OK

Data processed at Wed Feb 13 2019 23:32


All information presented herein is the property of the government of the United States of America and may be revised or deleted at any time without prior notice.
Dissemination of this information without the expressed written consent of the Public Affairs Office, Tulsa District U.S. Army Corps of Engineers is strictly prohibited.
These data are gathered electronically and, as presented, have not undergone any form of quality control. These data are not guaranteed to be valid or correct.
Go to home page.
Go to station list.
Go to home page.

Upstream stations:

Downstream station:
Previous Day
Next Day
Current Day
    
SHEF ID:       LEPO2     Verdigris River near Lenapah, OK
STATION TYPE:  
Regulating: Stage =    30.00, Flow =    36628

               PRECIP     STAGE  STAGE(2)  RIV-FLOW   VOLTAGE  BAT-LOAD
                   in        ft        ft       cfs      volt      volt
              Ccp-Rev   Ccp-Rev   Ccp-Rev   Ccp-Rev   Ccp-Rev   Ccp-Rev
(US/Central)
02/13 00:00      0.00      6.74      6.85      2220     12.90     11.66
02/13 01:00      0.00      6.71      6.81      2189     12.90     11.66
02/13 02:00      0.00      6.66      6.76      2138     12.90     11.60
02/13 03:00      0.00      6.62      6.72      2096     12.90     11.60
02/13 04:00      0.00      6.57      6.68      2044     12.90     11.60
02/13 05:00      0.00      6.54      6.64      2013     12.90     11.60
02/13 06:00      0.00      6.51      6.60      1982     12.90     11.60
02/13 07:00      0.00      6.48      6.57      1951     12.90     11.54
02/13 08:00      0.00      6.43      6.53      1899     13.20     11.54
02/13 09:00      0.00      6.40      6.50      1868     13.90     11.89
02/13 10:00      0.00      6.39      6.46      1858     13.90     12.54
02/13 11:00      0.00      6.37      6.41      1837     13.90     12.48
02/13 12:00      0.00      6.31      6.39      1775     14.00     12.42
02/13 13:00      0.00      6.34      6.37      1806     13.90     12.42
02/13 14:00      0.00      6.33      6.36      1796     14.00     12.42
02/13 15:00      0.00      6.31      6.33      1775     14.00     12.36
02/13 16:00      0.00      6.29      6.34      1754     14.00     12.36
02/13 17:00      0.00      6.28      6.35      1744     13.70     12.36
02/13 18:00      0.00      6.26      6.33      1723     13.30     12.13
02/13 19:00      0.00      6.27      6.33      1734     13.10     12.01
02/13 20:00      0.00      6.25      6.33      1713     13.00     11.72
02/13 21:00      0.00      6.27      6.30      1734     13.00     11.72
02/13 22:00      0.00      6.26      6.30      1723     13.00     11.66
02/13 23:00      0.00      6.26      6.33      1723     13.00     11.66